Time,TemperatureF,DewpointF,PressureIn,WindDirection,WindDirectionDegrees,WindSpeedMPH,WindSpeedGustMPH,Humidity,HourlyPrecipIn,Conditions,Clouds,dailyrainin,SoftwareType,DateUTC
2013-05-02 00:02:00,43.0,35.9,30.48,SE,135,0.0,0.0,76,0.00,CLR,FEW,0.00,WeatherDisplay:10.37,2013-05-02 07:02:00,
2013-05-02 00:17:00,42.4,35.7,30.48,NW,316,0.0,0.0,77,0.00,CLR,FEW,0.00,WeatherDisplay:10.37,2013-05-02 07:17:00,
2013-05-02 00:32:00,41.7,35.0,30.48,SSE,166,0.0,0.0,77,0.00,CLR,FEW,0.00,WeatherDisplay:10.37,2013-05-02 07:32:00,
2013-05-02 00:47:00,41.2,34.5,30.48,SW,226,0.0,0.0,77,0.00,CLR,FEW,0.00,WeatherDisplay:10.37,2013-05-02 07:47:00,
2013-05-02 01:02:00,40.8,34.5,30.48,West,262,0.0,0.0,78,0.00,CLR,FEW,0.00,WeatherDisplay:10.37,2013-05-02 08:02:00,
2013-05-02 01:17:00,40.3,34.0,30.49,SE,127,0.0,1.0,78,0.00,CLR,FEW,0.00,WeatherDisplay:10.37,2013-05-02 08:17:00,
2013-05-02 01:32:00,39.7,33.4,30.48,South,189,0.0,0.0,78,0.00,CLR,FEW,0.00,WeatherDisplay:10.37,2013-05-02 08:32:00,
2013-05-02 01:47:00,39.4,33.4,30.49,East,89,0.0,0.0,79,0.00,CLR,FEW,0.00,WeatherDisplay:10.37,2013-05-02 08:47:00,
2013-05-02 02:02:00,38.8,32.9,30.48,South,182,0.0,0.0,79,0.00,CLR,FEW,0.00,WeatherDisplay:10.37,2013-05-02 09:02:00,
2013-05-02 02:17:00,38.5,32.5,30.48,SW,225,0.0,0.0,79,0.00,CLR,FEW,0.00,WeatherDisplay:10.37,2013-05-02 09:17:00,
2013-05-02 02:32:00,38.1,32.2,30.47,WSW,239,0.0,0.0,79,0.00,CLR,FEW,0.00,WeatherDisplay:10.37,2013-05-02 09:32:00,
2013-05-02 02:47:00,38.7,33.4,30.48,NNE,24,0.0,6.0,81,0.00,CLR,FEW,0.00,WeatherDisplay:10.37,2013-05-02 09:47:00,
2013-05-02 03:02:00,39.0,33.4,30.48,SSE,155,0.0,1.0,80,0.00,CLR,FEW,0.00,WeatherDisplay:10.37,2013-05-02 10:02:00,
2013-05-02 03:17:00,38.3,32.7,30.48,SSW,211,0.0,0.0,80,0.00,CLR,FEW,0.00,WeatherDisplay:10.37,2013-05-02 10:17:00,
2013-05-02 03:32:00,37.9,32.3,30.48,East,95,0.0,1.0,80,0.00,CLR,FEW,0.00,WeatherDisplay:10.37,2013-05-02 10:32:00,
2013-05-02 03:47:00,37.2,31.6,30.47,SSE,162,0.0,2.0,80,0.00,CLR,FEW,0.00,WeatherDisplay:10.37,2013-05-02 10:47:00,
2013-05-02 04:02:00,36.7,31.1,30.46,SSW,209,0.0,0.0,80,0.00,CLR,FEW,0.00,WeatherDisplay:10.37,2013-05-02 11:02:00,
2013-05-02 04:17:00,36.3,30.7,30.46,WSW,251,0.0,0.0,80,0.00,CLR,FEW,0.00,WeatherDisplay:10.37,2013-05-02 11:17:00,
2013-05-02 04:32:00,36.1,30.9,30.46,SSW,194,0.0,1.0,81,0.00,CLR,FEW,0.00,WeatherDisplay:10.37,2013-05-02 11:32:00,
2013-05-02 04:47:00,35.8,30.5,30.46,SSW,202,0.0,0.0,81,0.00,CLR,FEW,0.00,WeatherDisplay:10.37,2013-05-02 11:47:00,
2013-05-02 05:02:00,35.4,29.9,30.46,South,183,0.0,1.0,80,0.00,CLR,FEW,0.00,WeatherDisplay:10.37,2013-05-02 12:02:00,
2013-05-02 05:17:00,35.2,30.0,30.46,South,173,0.0,0.0,81,0.00,CLR,FEW,0.00,WeatherDisplay:10.37,2013-05-02 12:17:00,
2013-05-02 05:32:00,34.9,29.6,30.47,SSE,161,0.0,0.0,81,0.00,CLR,FEW,0.00,WeatherDisplay:10.37,2013-05-02 12:32:00,
2013-05-02 05:47:00,34.7,29.5,30.46,SE,146,0.0,0.0,81,0.00,CLR,FEW,0.00,WeatherDisplay:10.37,2013-05-02 12:47:00,
2013-05-02 06:02:00,34.3,29.1,30.46,SW,228,0.0,0.0,81,0.00,CLR,FEW,0.00,WeatherDisplay:10.37,2013-05-02 13:02:00,
2013-05-02 06:17:00,34.3,29.1,30.45,South,180,0.0,0.0,81,0.00,CLR,FEW,0.00,WeatherDisplay:10.37,2013-05-02 13:17:00,
2013-05-02 06:32:00,34.3,29.1,30.44,South,180,0.0,0.0,81,0.00,CLR,FEW,0.00,WeatherDisplay:10.37,2013-05-02 13:32:00,
2013-05-02 06:47:00,34.3,29.4,30.44,SSW,202,0.0,0.0,82,0.00,CLR,FEW,0.00,WeatherDisplay:10.37,2013-05-02 13:47:00,
2013-05-02 07:02:00,34.9,29.9,30.44,ESE,107,0.0,0.0,82,0.00,CLR,FEW,0.00,WeatherDisplay:10.37,2013-05-02 14:02:00,
2013-05-02 07:17:00,35.8,30.9,30.44,South,189,0.0,1.0,82,0.00,CLR,FEW,0.00,WeatherDisplay:10.37,2013-05-02 14:17:00,
2013-05-02 07:32:00,37.6,32.9,30.44,ENE,76,0.0,0.0,83,0.00,CLR,FEW,0.00,WeatherDisplay:10.37,2013-05-02 14:32:00,
2013-05-02 07:47:00,40.9,36.4,30.44,WSW,246,0.0,1.0,84,0.00,CLR,FEW,0.00,WeatherDisplay:10.37,2013-05-02 14:47:00,
2013-05-02 08:02:00,45.4,40.8,30.44,ENE,58,0.0,2.0,84,0.00,CLR,FEW,0.00,WeatherDisplay:10.37,2013-05-02 15:02:00,
2013-05-02 08:17:00,50.0,45.0,30.43,NNE,13,0.0,3.0,83,0.00,CLR,FEW,0.00,WeatherDisplay:10.37,2013-05-02 15:17:00,
2013-05-02 08:32:00,54.3,46.1,30.44,WNW,283,1.0,3.0,74,0.00,CLR,FEW,0.00,WeatherDisplay:10.37,2013-05-02 15:32:00,
2013-05-02 08:47:00,57.4,46.9,30.43,NNW,336,0.0,3.0,68,0.00,CLR,FEW,0.00,WeatherDisplay:10.37,2013-05-02 15:47:00,
2013-05-02 09:02:00,60.0,47.4,30.42,NNW,347,1.0,5.0,63,0.00,CLR,FEW,0.00,WeatherDisplay:10.37,2013-05-02 16:02:00,
2013-05-02 09:17:00,62.4,46.0,30.42,NNE,14,1.0,8.0,55,0.00,CLR,FEW,0.00,WeatherDisplay:10.37,2013-05-02 16:17:00,
2013-05-02 09:32:00,64.7,46.2,30.41,NNE,30,1.0,8.0,51,0.00,CLR,FEW,0.00,WeatherDisplay:10.37,2013-05-02 16:32:00,
2013-05-02 09:47:00,66.4,45.0,30.41,NNE,31,6.0,9.0,46,0.00,CLR,FEW,0.00,WeatherDisplay:10.37,2013-05-02 16:47:00,
2013-05-02 10:02:00,67.3,44.6,30.40,NNE,31,2.0,10.0,44,0.00,CLR,FEW,0.00,WeatherDisplay:10.37,2013-05-02 17:02:00,
2013-05-02 10:17:00,68.5,45.1,30.40,NE,35,5.0,12.0,43,0.00,CLR,FEW,0.00,WeatherDisplay:10.37,2013-05-02 17:17:00,
2013-05-02 10:32:00,69.9,45.1,30.40,NNE,30,3.0,10.0,41,0.00,CLR,FEW,0.00,WeatherDisplay:10.37,2013-05-02 17:32:00,
2013-05-02 10:47:00,71.4,47.1,30.39,NE,37,1.0,6.0,42,0.00,CLR,FEW,0.00,WeatherDisplay:10.37,2013-05-02 17:47:00,
2013-05-02 11:02:00,71.4,44.5,30.39,NNE,29,2.0,11.0,38,0.00,CLR,FEW,0.00,WeatherDisplay:10.37,2013-05-02 18:02:00,
2013-05-02 11:17:00,72.7,45.6,30.38,NNE,31,1.0,10.0,38,0.00,CLR,FEW,0.00,WeatherDisplay:10.37,2013-05-02 18:17:00,
2013-05-02 11:32:00,73.6,45.7,30.37,North,10,1.0,7.0,37,0.00,CLR,FEW,0.00,WeatherDisplay:10.37,2013-05-02 18:32:00,
2013-05-02 11:47:00,75.0,45.5,30.37,NE,35,3.0,6.0,35,0.00,CLR,FEW,0.00,WeatherDisplay:10.37,2013-05-02 18:47:00,
2013-05-02 12:02:00,76.5,44.5,30.37,NNE,13,2.0,8.0,32,0.00,CLR,FEW,0.00,WeatherDisplay:10.37,2013-05-02 19:02:00,
2013-05-02 12:17:00,76.8,45.5,30.36,North,358,3.0,7.0,33,0.00,CLR,FEW,0.00,WeatherDisplay:10.37,2013-05-02 19:17:00,
2013-05-02 12:32:00,76.8,46.3,30.36,NNW,338,3.0,6.0,34,0.00,CLR,FEW,0.00,WeatherDisplay:10.37,2013-05-02 19:32:00,
2013-05-02 12:47:00,77.4,46.0,30.35,North,5,1.0,6.0,33,0.00,CLR,FEW,0.00,WeatherDisplay:10.37,2013-05-02 19:47:00,
2013-05-02 13:02:00,77.7,45.5,30.35,North,349,2.0,7.0,32,0.00,CLR,FEW,0.00,WeatherDisplay:10.37,2013-05-02 20:02:00,
2013-05-02 13:17:00,77.7,46.3,30.35,NW,305,2.0,8.0,33,0.00,CLR,FEW,0.00,WeatherDisplay:10.37,2013-05-02 20:17:00,
2013-05-02 13:32:00,78.1,45.8,30.34,NNW,327,3.0,7.0,32,0.00,CLR,FEW,0.00,WeatherDisplay:10.37,2013-05-02 20:32:00,
2013-05-02 13:47:00,77.9,46.5,30.34,NW,326,2.0,6.0,33,0.00,CLR,FEW,0.00,WeatherDisplay:10.37,2013-05-02 20:47:00,
2013-05-02 14:02:00,78.6,45.4,30.33,NW,310,3.0,6.0,31,0.00,CLR,FEW,0.00,WeatherDisplay:10.37,2013-05-02 21:02:00,
2013-05-02 14:17:00,79.5,46.2,30.33,NW,324,5.0,10.0,31,0.00,CLR,FEW,0.00,WeatherDisplay:10.37,2013-05-02 21:17:00,
2013-05-02 14:32:00,79.3,46.1,30.34,WNW,296,3.0,9.0,31,0.00,CLR,FEW,0.00,WeatherDisplay:10.37,2013-05-02 21:32:00,
2013-05-02 14:47:00,78.9,46.6,30.33,WNW,302,6.0,9.0,32,0.00,CLR,FEW,0.00,WeatherDisplay:10.37,2013-05-02 21:47:00,
2013-05-02 15:02:00,77.7,49.4,30.33,NW,310,3.0,11.0,37,0.00,CLR,FEW,0.00,WeatherDisplay:10.37,2013-05-02 22:02:00,
2013-05-02 15:17:00,75.9,48.5,30.34,NW,325,5.0,12.0,38,0.00,CLR,FEW,0.00,WeatherDisplay:10.37,2013-05-02 22:17:00,
2013-05-02 15:32:00,74.5,49.2,30.33,West,270,3.0,10.0,41,0.00,CLR,FEW,0.00,WeatherDisplay:10.37,2013-05-02 22:32:00,
2013-05-02 15:47:00,73.9,48.1,30.33,West,278,7.0,15.0,40,0.00,CLR,FEW,0.00,WeatherDisplay:10.37,2013-05-02 22:47:00,
2013-05-02 16:02:00,72.5,46.8,30.33,West,273,2.0,12.0,40,0.00,CLR,FEW,0.00,WeatherDisplay:10.37,2013-05-02 23:02:00,
2013-05-02 16:17:00,72.0,47.0,30.34,West,265,6.0,12.0,41,0.00,CLR,FEW,0.00,WeatherDisplay:10.37,2013-05-02 23:17:00,
2013-05-02 16:32:00,70.9,46.0,30.34,SW,224,5.0,12.0,41,0.00,CLR,FEW,0.00,WeatherDisplay:10.37,2013-05-02 23:32:00,
2013-05-02 16:47:00,69.6,44.9,30.34,SSW,210,2.0,14.0,41,0.00,CLR,FEW,0.00,WeatherDisplay:10.37,2013-05-02 23:47:00,
2013-05-02 17:02:00,68.9,44.9,30.33,SW,228,2.0,6.0,42,0.00,CLR,FEW,0.00,WeatherDisplay:10.37,2013-05-03 00:02:00,
2013-05-02 17:17:00,68.7,44.7,30.34,SSW,210,2.0,8.0,42,0.00,CLR,FEW,0.00,WeatherDisplay:10.37,2013-05-03 00:17:00,
2013-05-02 17:32:00,68.2,44.3,30.33,SW,220,1.0,8.0,42,0.00,CLR,FEW,0.00,WeatherDisplay:10.37,2013-05-03 00:32:00,
2013-05-02 17:47:00,67.6,44.3,30.33,SW,217,1.0,7.0,43,0.00,CLR,FEW,0.00,WeatherDisplay:10.37,2013-05-03 00:47:00,
2013-05-02 18:02:00,66.7,43.5,30.33,SW,221,0.0,7.0,43,0.00,CLR,FEW,0.00,WeatherDisplay:10.37,2013-05-03 01:02:00,
2013-05-02 18:17:00,65.8,42.7,30.33,SW,233,3.0,9.0,43,0.00,CLR,FEW,0.00,WeatherDisplay:10.37,2013-05-03 01:17:00,
2013-05-02 18:32:00,64.6,41.6,30.33,SSW,198,1.0,6.0,43,0.00,CLR,FEW,0.00,WeatherDisplay:10.37,2013-05-03 01:32:00,
2013-05-02 18:47:00,63.7,40.8,30.32,SW,223,1.0,4.0,43,0.00,CLR,FEW,0.00,WeatherDisplay:10.37,2013-05-03 01:47:00,
2013-05-02 19:02:00,63.3,41.0,30.32,SW,221,0.0,8.0,44,0.00,CLR,FEW,0.00,WeatherDisplay:10.37,2013-05-03 02:02:00,
2013-05-02 19:17:00,62.9,40.7,30.32,SSW,211,0.0,5.0,44,0.00,CLR,FEW,0.00,WeatherDisplay:10.37,2013-05-03 02:17:00,
2013-05-02 19:32:00,61.9,39.7,30.31,SW,228,2.0,4.0,44,0.00,CLR,FEW,0.00,WeatherDisplay:10.37,2013-05-03 02:32:00,
2013-05-02 19:47:00,60.6,38.6,30.32,WSW,252,0.0,3.0,44,0.00,CLR,FEW,0.00,WeatherDisplay:10.37,2013-05-03 02:47:00,
2013-05-02 20:02:00,59.6,39.3,30.33,WNW,287,2.0,7.0,47,0.00,CLR,FEW,0.00,WeatherDisplay:10.37,2013-05-03 03:02:00,
2013-05-02 20:17:00,58.8,40.2,30.34,WSW,239,2.0,5.0,50,0.00,CLR,FEW,0.00,WeatherDisplay:10.37,2013-05-03 03:17:00,
2013-05-02 20:32:00,57.6,39.6,30.34,West,259,1.0,7.0,51,0.00,CLR,FEW,0.00,WeatherDisplay:10.37,2013-05-03 03:32:00,
2013-05-02 20:47:00,56.5,39.5,30.34,SW,228,1.0,6.0,53,0.00,CLR,FEW,0.00,WeatherDisplay:10.37,2013-05-03 03:47:00,
2013-05-02 21:02:00,55.6,39.2,30.34,SSW,204,1.0,7.0,54,0.00,CLR,FEW,0.00,WeatherDisplay:10.37,2013-05-03 04:02:00,
2013-05-02 21:17:00,54.9,39.0,30.34,South,185,0.0,3.0,55,0.00,CLR,FEW,0.00,WeatherDisplay:10.37,2013-05-03 04:17:00,
2013-05-02 21:32:00,54.3,38.5,30.34,South,172,0.0,3.0,55,0.00,CLR,FEW,0.00,WeatherDisplay:10.37,2013-05-03 04:32:00,
2013-05-02 21:47:00,53.4,38.1,30.35,SW,216,0.0,3.0,56,0.00,CLR,FEW,0.00,WeatherDisplay:10.37,2013-05-03 04:47:00,
2013-05-02 22:02:00,52.3,37.5,30.34,East,92,0.0,1.0,57,0.00,CLR,FEW,0.00,WeatherDisplay:10.37,2013-05-03 05:02:00,
2013-05-02 22:17:00,50.7,36.4,30.33,East,98,0.0,1.0,58,0.00,CLR,FEW,0.00,WeatherDisplay:10.37,2013-05-03 05:17:00,
2013-05-02 22:32:00,49.2,35.9,30.33,NW,316,0.0,2.0,60,0.00,CLR,FEW,0.00,WeatherDisplay:10.37,2013-05-03 05:32:00,
2013-05-02 22:47:00,48.0,35.6,30.33,South,169,0.0,2.0,62,0.00,CLR,FEW,0.00,WeatherDisplay:10.37,2013-05-03 05:47:00,
2013-05-02 23:02:00,46.8,35.3,30.34,SSE,158,0.0,2.0,64,0.00,CLR,FEW,0.00,WeatherDisplay:10.37,2013-05-03 06:02:00,
2013-05-02 23:17:00,45.7,34.6,30.34,WSW,248,0.0,0.0,65,0.00,CLR,FEW,0.00,WeatherDisplay:10.37,2013-05-03 06:17:00,
2013-05-02 23:32:00,44.8,34.5,30.34,East,98,0.0,0.0,67,0.00,CLR,FEW,0.00,WeatherDisplay:10.37,2013-05-03 06:32:00,
2013-05-02 23:47:00,44.1,34.2,30.34,SSE,165,0.0,0.0,68,0.00,CLR,FEW,0.00,WeatherDisplay:10.37,2013-05-03 06:47:00,